Cajati, Brazil
Current Conditions -  °F | °C
As of 7:00 AM on Saturday 22 Nov 2014 (Local Time) from SBBI Reporting Station
Light Rain Light Rain  
Wind Chill: 66°   Ceiling: 10000
Heat Index: 66°   Visibility: 4mi
Dew Point: 64°   Wind: 3mph
Humidity: 94%   Direction: 320°NW
Pressure: 29.97"   Gusts: NA
Location:  24.74°S, 48.12°W
Report Text: SBBI 220900Z 32003KT 7000 -RA FEW030TCU BKN100 19/18 Q1015
Loading
Personal Weather Stations






























Interactive Weather Map New forecast layout! Learn more

10-Day Weather Forecast

Advertisements
Track Severe Weather on mobile